Nassau/Lynden Pindling International Airport


MYNN 260100Z VRB02KT 9999 VCTS FEW016CB SCT100 BKN200 25/24 A3005 RETSRA RMK CB S/E


TAF MYNN 251655Z 2518/2618 15008KT 9999 VCTS FEW018CB SCT035 BKN200 PROB30 TEMPO 2604/2610 17012G22KT 6000 TSRA FEW015CB SCT018 BKN080 PROB30 TEMPO 2614/2618 12015KT 7000 SHRA FEW016CB BKN018 OVC100

 

Freeport/Grand Bahama International Airport


MYGF 260000Z 15004KT 9999 VCTS VCSH SCT012CB SCT040 BKN120 26/24 A3001


TAF MYGF 251655Z 2518/2618 18012KT 9000 A TSRA FEW012CB SCT018 BKN100 FM250000 19005KT 9000 SHRA FEW015CB SCT018 BKN100

 

Providenciales International Airport


MBPV 252200Z 05006KT 9999 SCT012 29/24 Q1014


TAF MBPV 251655Z 2518/2618 10010KT 9999 SCT015CB SCT018 BKN220

Close Menu